DAOR/CBH METAR and TAF weather

Enter ICAO airport designator
Station Type Date Time Source
DAOR METAR 2019/11/13 02:00 UTC NOAA

DAOR 130200Z 33002KT CAVOK 11/01 Q1016


Station Type Date Time Source
DAOR Decoded METAR 2019/11/13 02:00 UTC NOAA

Bechar, Algeria (DAOR) 31-37N 002-14W 773M
Nov 12, 2019 - 09:00 PM EST / 2019.11.13 0200 UTC
Wind: from the NNW (330 degrees) at 2 MPH (2 KT):0
Visibility: greater than 7 mile(s):0
Temperature: 51 F (11 C)
Dew Point: 33 F (1 C)
Relative Humidity: 50%
Pressure (altimeter): 30.00 in. Hg (1016 hPa)
ob: DAOR 130200Z 33002KT CAVOK 11/01 Q1016
cycle: 2

Station Type Date Time Source
DAOR TAF 2017/11/09 18:03 UTC NOAA

TAF DAOR 091700Z 0918/1009 35010KT 6000 FEW033 SCT100
TEMPO 0918/0924 3000 BLSA PROB40
TEMPO 0918/0924 35020G35KT 2000 -TSRA FEW030CB

Example: see airport list